Extreme weather reports worldwide

High gusts

Station
 
Location
 
Name
 
Wind
Knots
Gust
Knots
Vis
SM
Temp/Dew
C
Baro
inHg
METAR
 
ILI PAIL Iliamna, US Iliamna Airport 36 57 10 2/1 28.86 PAIL 251253Z AUTO 10036G57KT 10SM FEW100 03/01 A2886 RMK AO2 PK WND 10057/1246 RAE24 SLP777 P0000 T00280011 TSNO
CWZZ 34 50 -11/-16 29.39 CWZZ 251300Z AUTO 30034G50KT 270V330 ////SM FEW025 SCT032 SCT037 M11/M16 A2939
SVW PASV Sparrevohn, US Sparrevohn LRRS Airport 26 46 10 4/-3 28.79 PASV 251255Z AUTO 14026G46KT 10SM -RA BKN045 BKN130 04/M04 A2879 RMK AO2 PK WND 13055/1237 SHRAB1107E1231 SLP759 P0000 T00411038 $
KMWN 30 46 0.06 -12/-12 KMWN 251256Z 24030G46KT 1/16SM -SN FZFG VV001 M12/M12 RMK VRY LGT ICG
KGK PAJZ Koliganek, US Koliganek Airport 39 46 5 3/1 28.79 PAJZ 251304Z AUTO 12039G46KT 5SM -RA BR BKN011 BKN016 OVC031 03/01 A2879 RMK AO2 PK WND 13046/1257 P0000 $

Station
 
Location
 
Name
 
Wind
Knots
Gust
Knots
Vis
SM
Temp/Dew
C
Baro
inHg
METAR
 
KUS BGKK Kulusuk, GL Kulusuk Airport 31 44 -5/-7 29.29 BGKK 251250Z AUTO 08031G44KT 0350NDV +SN VV005/// M05/M07 Q0992
YVM CYVM Qikiqtarjuaq, CA Qikiqtarjuaq Airport 36 44 1 -4/-5 28.96 CYVM 251300Z 35036G44KT 1SM -SHSN BLSN OVC015 M04/M05 A2896 RMK BLSN6SC2 OCNL VIS 1/2 SLP808
LVM KLVM Livingston, US Mission Field 29 43 10 2/-8 29.71 KLVM 251253Z AUTO 22029G43KT 10SM CLR 03/M08 A2971 RMK AO2 PK WND 21055/1207 SLP073 T00281083
YFB CYFB Iqaluit, CA Iqaluit Airport 37 43 0.25 -17/-20 29.40 CYFB 251322Z 32037G43KT 1/4SM R34/1600V2200FT/N -SN BLSN OVC008 M17/M20 A2940 RMK BLSN7SC1 SLP961
KVL PAVL Kivalina, US Kivalina Airport 34 41 7 -1/-5 28.94 PAVL 251253Z AUTO 11034G41KT 7SM SCT060 M01/M05 A2894 RMK AO2 PK WND 10041/1252 SLP800 T10111050 TSNO $
CWOB 34 41 -16/-18 28.95 CWOB 251300Z AUTO 32034G41KT ////SM FEW047 SCT060 BKN065 M16/M18 A2895
OTZ PAOT Kotzebue, US Ralph Wien Memorial Airport 34 40 1.75 -4/-6 28.96 PAOT 251253Z AUTO 10034G40KT 1 3/4SM -SN BR OVC060 M04/M06 A2896 RMK AO2 PK WND 10042/1156 UPB1155E26B42E49SNE1155B1157E01B03E07B10E20B26E42B46E47B49 SLP806 P0000 T10441061 TSNO $
CRD SAVC Comodoro Rivadavia, AR General E. Mosconi Airport 25 40 6.21 16/3 29.47 SAVC 251300Z 29025G40KT 250V300 9999 FEW040 SCT100 16/03 Q0998
KEKS Ennis, US Ennis Big Sky Airport 31 39 10 0/-8 29.83 KEKS 251315Z AUTO 18031G39KT 10SM CLR M00/M08 A2983 RMK AO2
SKK PFSH Shaktoolik, US Shaktoolik Airport 30 38 10 1/-1 28.77 PFSH 251256Z AUTO 11030G38KT 10SM FEW060 OVC080 02/M02 A2877 RMK AO2 PK WND 11042/1220 SLP744 T00171017 FZRANO
YDP CYDP Nain, CA Nain Airport 24 38 15 -7/-15 29.83 CYDP 251300Z 29024G38KT 15SM FEW018 BKN029 BKN120 M07/M15 A2983 RMK CF1SC6AC1 CF TR AC TR G45 PAST HR SLP103
KCQC 29 37 10 -2/-8 30.04 KCQC 251253Z AUTO 30029G37KT 10SM CLR M03/M08 A3004 RMK AO2 PK WND 30037/1214 SLP179 T10281083
SHG PAGH Shungnak, US Shungnak Airport 26 37 10 -5/-10 29.21 PAGH 251256Z AUTO 10026G37KT 10SM FEW120 M05/M11 A2921 RMK AO2 PK WND 11042/1229 SLP897 T10501106 FZRANO
DYR UHMA Anadyr, RU Ugolny Airport 27 37 0.43 -5/-6 27.99 UHMA 251300Z 25014G19MPS 0700 0500S R01/0500U +SN BLSN SCT005 BKN018 OVC026 M05/M06 Q0948 RESHSN R01/////// NOSIG RMK TDZ R01/25014G19MPS END R01/24011G15MPS QFE707/0943
PAS LGPA Paros Island, GR Paros National Airport 25 36 6.21 15/8 29.97 LGPA 251250Z 35025G36KT 9999 FEW020 SCT025 15/08 Q1015
BIG PABI Delta Junction Ft Greely, US Allen Army Airfield 26 36 10 -10/-15 29.37 PABI 251253Z AUTO 11026G36KT 10SM CLR M10/M15 A2937 RMK AO2 PK WND 12039/1212 SLP989 T11001150 TSNO
YMN CYFT Makkovik, CA Makkovik Airport 25 36 15 -8/-15 29.94 CYFT 251300Z 27025G36KT 15SM BKN032 M08/M15 A2994 RMK SC6 SLP146
TNC PATC Tin City, US Tin City Long Range Radar Station Airport 30 36 6 1/0 28.63 PATC 251308Z AUTO 15030G36KT 6SM -RASN FEW013 OVC026 01/00 A2863 RMK AO2 SLP696
ORV PFNO Noorvik, US Robert (Bob) Curtis Memorial Airport 28 36 1.25 -4/-6 29.04 PFNO 251318Z AUTO 08028G36KT 1 1/4SM -SN BR BKN070 OVC090 M04/M06 A2904 RMK AO2 PK WND 10040/1258 P0000 FZRANO
BRW PABR Utqiaġvik, US Wiley Post Will Rogers Memorial Airport 29 35 0.5 -12/-15 29.51 PABR 251253Z AUTO 07029G35KT 1/2SM SN OVC003 M12/M15 A2951 RMK AO2 PK WND 07035/1250 UPB26E36SNE26B36 SLP995 P0000 T11221150 TSNO RVRNO
GLV PAGL Golovin, US Golovin Airport 30 35 0/-1 28.75 PAGL 251256Z AUTO 11030G35KT CLR M01/M01 A2875 RMK AO2 PK WND 11035/1255 SLPNO T10061011 PWINO FZRANO $
JSY LGSO Syros Island, GR Syros Airport 24 34 6.21 14/9 30.03 LGSO 251250Z 35024G34KT 9999 FEW012 BKN018 14/09 Q1017
UNK PAUN Unalakleet, US Unalakleet Airport 27 34 9 -2/-4 28.82 PAUN 251256Z AUTO 08027G34KT 9SM -SN SCT080 M03/M04 A2882 RMK AO2 PK WND 08034/1248 SLP761 P0000 T10281044 FZRANO
PIZ PPIZ Point Lay, US Point Lay LRRS Airport 26 34 3 -14/-16 29.18 PPIZ 251256Z AUTO 07026G34KT 3SM -SN BR SCT050 BKN060 M14/M16 A2918 RMK AO2 PK WND 07034/1253 SLP884 P0000 T11441161 FZRANO
PAKX 17 34 10 6/-1 28.86 PAKX 251315Z AUTO 07017G34KT 10SM BKN070 06/M01 A2886 RMK AO2
PTH PAPH Port Heiden, US Port Heiden Airport 25 34 8 3/2 28.86 PAPH 251316Z AUTO 27025G34KT 8SM -RA SCT019 BKN026 OVC038 03/02 A2886 RMK AO2 PK WND 27034/1316 PNO $
KBAN 21 33 10 6/-12 30.02 KBAN 251252Z AUTO 23021G33KT 10SM CLR 06/M12 A3002 RMK AO2 PK WND 24033/1209 SLP141 T00611122 $
SYA PASY Shemya, US Eareckson Air Station 26 33 7 1/-3 29.33 PASY 251253Z AUTO 27026G33KT 7SM R28/5500FT FEW032 01/M03 A2933 RMK AO2 SNE06SNB28E39SNB44E53 SLP936 FZRANO $
WMO PAWM White Mountain, US White Mountain Airport 21 33 0.75 0/0 28.74 PAWM 251256Z AUTO 11021G33KT 3/4SM -SN BR OVC005 M01/M01 A2874 RMK AO2 PK WND 11036/1230 CIG 004V011 SLP736 P0000 T10061006 FZRANO
YQC CYHA Quaqtaq, CA Quaqtaq Airport 21 33 15 -9/-12 29.60 CYHA 251300Z 29021G33KT 15SM DRSN BKN021 M09/M12 A2960 RMK SC7 SN CVR/MED PACK SLP027
PXO LPPS Vila Baleira, PT Porto Santo Airport 23 33 5.59 15/8 30.12 LPPS 251300Z 33023G33KT 9000 -SHRA BKN014 15/08 Q1020
NQN SAZN Neuquen, AR Presidente Peron Airport 21 33 6.21 19/5 29.85 SAZN 251300Z 29021G33KT 9999 FEW030 19/05 Q1011
K0CO 22 33 -15/-25 30.01 K0CO 251315Z AUTO 33022G33KT CLR M15/M25 A3001 RMK AO2 PWINO
PAUT Akutan, US Akun Airport 24 33 10 3/0 29.16 PAUT 251315Z AUTO 29024G33KT 10SM SCT013 BKN035 OVC049 04/00 A2916 RMK AO2 T00390004 PWINO
KWN PAQH Quinhagak, US Quinhagak Airport 25 32 2.5 0/0 28.60 PAQH 251308Z AUTO 26025G32KT 2 1/2SM -SN BR OVC008 00/00 A2860 RMK AO2 PK WND 26032/1306 CIG 005V011 P0000 FZRANO
XGR CYLU Kangiqsualujjuaq, CA Kangiqsualujjuaq (Georges River) Airport 20 32 0.5 -8/-10 29.76 CYLU 251309Z 28020G32KT 1/2SM BLSN VV011 M08/M10 A2976 RMK BLSN8 SLP084
BZI LTBF TR Balıkesir Merkez Airport 21 31 6.21 14/4 30.12 LTBF 251250Z 02021G31KT 9999 FEW035 SCT100 14/04 Q1020 NOSIG
FTU FMSD Tôlanaro, MG Tôlanaro Airport 21 31 6.21 29/23 29.82 FMSD 251300Z 08021G31KT CAVOK 29/23 Q1010
CCH SCCC Chile Chico, CL Chile Chico Airport 20 31 6.21 / 29.53 SCCC 251300Z 27020G31KT 9999 FEW040 ///// Q1000
PAAD Deadhorse, US Point Thomson Airstrip 26 31 1.5 -8/-9 29.53 PAAD 251315Z AUTO 09026G31KT 1 1/2SM -SN OVC008 M08/M09 A2953 RMK AO2 T10851093
WTB YBWW Toowoomba, AU Toowoomba Wellcamp Airport 21 31 6.21 20/15 29.91 YBWW 251319Z AUTO 08021G31KT 9999 // NCD 20/15 Q1013 RF00.0/000.0
UAK BGBW Narsarsuaq, GL Narsarsuaq Airport 20 30 6.21 4/-7 28.35 BGBW 251250Z 06020G30KT 9999 BKN095 04/M07 Q0960
JMK LGMK Mykonos Island, GR Mikonos Airport 20 30 6.21 16/5 29.97 LGMK 251250Z 36020G30KT 9999 SCT020 16/05 Q1015
BNA KBNA Nashville, US Nashville International Airport 18 30 9 13/8 29.99 KBNA 251253Z 17018G30KT 9SM -RA BKN055 OVC070 14/09 A2999 RMK AO2 PK WND 16030/1204 RAB01E17B49 SLP153 P0000 T01390089
KRUE Russellville, US Russellville Regional Airport 23 30 10 8/5 29.84 KRUE 251253Z AUTO 27023G30KT 10SM OVC019 09/06 A2984 RMK AO2 PK WND 28031/1206 WSHFT 1159 PRESRR SLP102 T00890056